sensor_id;sensor_type;location;lat;lon;timestamp;temperature;humidity
29345;DHT22;16339;48.748;2.222;2023-04-24T00:01:01;13.40;91.10
29345;DHT22;16339;48.748;2.222;2023-04-24T00:03:33;13.20;91.10
29345;DHT22;16339;48.748;2.222;2023-04-24T00:06:01;13.20;90.90
29345;DHT22;16339;48.748;2.222;2023-04-24T00:08:32;13.20;91.00
29345;DHT22;16339;48.748;2.222;2023-04-24T00:11:04;13.10;90.80
29345;DHT22;16339;48.748;2.222;2023-04-24T00:13:32;13.00;91.00
29345;DHT22;16339;48.748;2.222;2023-04-24T00:16:01;13.00;91.10
29345;DHT22;16339;48.748;2.222;2023-04-24T00:18:31;13.10;91.10
29345;DHT22;16339;48.748;2.222;2023-04-24T00:20:59;13.30;91.20
29345;DHT22;16339;48.748;2.222;2023-04-24T00:23:28;13.30;91.00
29345;DHT22;16339;48.748;2.222;2023-04-24T00:25:57;13.30;90.60
29345;DHT22;16339;48.748;2.222;2023-04-24T00:28:28;13.20;90.60
29345;DHT22;16339;48.748;2.222;2023-04-24T00:30:57;13.20;90.60
29345;DHT22;16339;48.748;2.222;2023-04-24T00:33:25;13.10;90.60
29345;DHT22;16339;48.748;2.222;2023-04-24T00:35:54;13.00;91.00
29345;DHT22;16339;48.748;2.222;2023-04-24T00:38:23;12.90;90.90
29345;DHT22;16339;48.748;2.222;2023-04-24T00:40:51;12.90;91.20
29345;DHT22;16339;48.748;2.222;2023-04-24T00:43:20;13.00;91.40
29345;DHT22;16339;48.748;2.222;2023-04-24T00:45:52;13.10;91.30
29345;DHT22;16339;48.748;2.222;2023-04-24T00:48:20;13.00;91.30
29345;DHT22;16339;48.748;2.222;2023-04-24T00:50:49;13.00;91.00
29345;DHT22;16339;48.748;2.222;2023-04-24T00:53:18;13.00;91.00
29345;DHT22;16339;48.748;2.222;2023-04-24T00:55:47;12.90;90.90
29345;DHT22;16339;48.748;2.222;2023-04-24T00:58:16;13.00;91.00
29345;DHT22;16339;48.748;2.222;2023-04-24T01:00:45;13.00;91.20
29345;DHT22;16339;48.748;2.222;2023-04-24T01:03:17;12.90;90.90
29345;DHT22;16339;48.748;2.222;2023-04-24T01:05:46;12.90;90.80
29345;DHT22;16339;48.748;2.222;2023-04-24T01:08:15;13.00;91.00
29345;DHT22;16339;48.748;2.222;2023-04-24T01:10:44;13.00;90.90
29345;DHT22;16339;48.748;2.222;2023-04-24T01:13:14;12.90;90.70
29345;DHT22;16339;48.748;2.222;2023-04-24T01:15:43;12.90;90.80
29345;DHT22;16339;48.748;2.222;2023-04-24T01:18:12;12.70;90.80
29345;DHT22;16339;48.748;2.222;2023-04-24T01:20:45;12.70;91.20
29345;DHT22;16339;48.748;2.222;2023-04-24T01:23:17;12.50;91.20
29345;DHT22;16339;48.748;2.222;2023-04-24T01:25:45;12.70;91.30
29345;DHT22;16339;48.748;2.222;2023-04-24T01:28:15;12.70;91.50
29345;DHT22;16339;48.748;2.222;2023-04-24T01:30:44;12.70;91.00
29345;DHT22;16339;48.748;2.222;2023-04-24T01:33:13;12.70;91.00
29345;DHT22;16339;48.748;2.222;2023-04-24T01:35:42;12.80;91.10
29345;DHT22;16339;48.748;2.222;2023-04-24T01:38:11;12.80;91.30
29345;DHT22;16339;48.748;2.222;2023-04-24T01:40:42;12.80;91.00
29345;DHT22;16339;48.748;2.222;2023-04-24T01:43:12;12.70;91.00
29345;DHT22;16339;48.748;2.222;2023-04-24T01:45:41;12.60;91.40
29345;DHT22;16339;48.748;2.222;2023-04-24T01:48:10;12.70;91.70
29345;DHT22;16339;48.748;2.222;2023-04-24T01:50:39;12.80;91.40
29345;DHT22;16339;48.748;2.222;2023-04-24T01:53:08;13.00;91.40
29345;DHT22;16339;48.748;2.222;2023-04-24T01:55:37;13.00;91.20
29345;DHT22;16339;48.748;2.222;2023-04-24T01:58:08;13.10;91.20
29345;DHT22;16339;48.748;2.222;2023-04-24T02:00:37;13.10;91.00
29345;DHT22;16339;48.748;2.222;2023-04-24T02:03:05;13.20;91.00
29345;DHT22;16339;48.748;2.222;2023-04-24T02:05:34;13.20;90.80
29345;DHT22;16339;48.748;2.222;2023-04-24T02:08:03;13.00;90.70
29345;DHT22;16339;48.748;2.222;2023-04-24T02:10:31;13.00;91.00
29345;DHT22;16339;48.748;2.222;2023-04-24T02:13:00;12.90;91.10
29345;DHT22;16339;48.748;2.222;2023-04-24T02:15:32;12.90;91.30
29345;DHT22;16339;48.748;2.222;2023-04-24T02:18:01;12.80;91.40
29345;DHT22;16339;48.748;2.222;2023-04-24T02:20:30;13.00;91.50
29345;DHT22;16339;48.748;2.222;2023-04-24T02:22:59;12.90;91.40
29345;DHT22;16339;48.748;2.222;2023-04-24T02:25:28;12.90;91.30
29345;DHT22;16339;48.748;2.222;2023-04-24T02:27:57;13.00;91.30
29345;DHT22;16339;48.748;2.222;2023-04-24T02:30:25;13.00;91.10
29345;DHT22;16339;48.748;2.222;2023-04-24T02:32:57;13.10;91.10
29345;DHT22;16339;48.748;2.222;2023-04-24T02:35:25;13.00;91.20
29345;DHT22;16339;48.748;2.222;2023-04-24T02:37:54;13.00;91.20
29345;DHT22;16339;48.748;2.222;2023-04-24T02:40:23;12.80;91.30
29345;DHT22;16339;48.748;2.222;2023-04-24T02:42:51;12.80;91.20
29345;DHT22;16339;48.748;2.222;2023-04-24T02:45:20;12.90;91.50
29345;DHT22;16339;48.748;2.222;2023-04-24T02:47:49;12.60;91.60
29345;DHT22;16339;48.748;2.222;2023-04-24T02:50:20;12.60;91.80
29345;DHT22;16339;48.748;2.222;2023-04-24T02:52:49;12.60;92.00
29345;DHT22;16339;48.748;2.222;2023-04-24T02:55:18;12.70;91.60
29345;DHT22;16339;48.748;2.222;2023-04-24T02:57:46;12.70;91.50
29345;DHT22;16339;48.748;2.222;2023-04-24T03:00:16;12.80;91.50
29345;DHT22;16339;48.748;2.222;2023-04-24T03:02:44;12.90;91.50
29345;DHT22;16339;48.748;2.222;2023-04-24T03:05:13;12.70;91.50
29345;DHT22;16339;48.748;2.222;2023-04-24T03:07:44;12.80;91.50
29345;DHT22;16339;48.748;2.222;2023-04-24T03:10:13;12.60;91.40
29345;DHT22;16339;48.748;2.222;2023-04-24T03:12:42;12.70;91.50
29345;DHT22;16339;48.748;2.222;2023-04-24T03:15:11;12.60;91.50
29345;DHT22;16339;48.748;2.222;2023-04-24T03:17:39;12.70;91.50
29345;DHT22;16339;48.748;2.222;2023-04-24T03:20:09;12.80;91.30
29345;DHT22;16339;48.748;2.222;2023-04-24T03:22:38;12.70;91.60
29345;DHT22;16339;48.748;2.222;2023-04-24T03:25:09;12.70;91.60
29345;DHT22;16339;48.748;2.222;2023-04-24T03:27:38;12.70;91.30
29345;DHT22;16339;48.748;2.222;2023-04-24T03:30:08;12.70;91.30
29345;DHT22;16339;48.748;2.222;2023-04-24T03:32:37;12.70;91.30
29345;DHT22;16339;48.748;2.222;2023-04-24T03:35:07;12.50;91.70
29345;DHT22;16339;48.748;2.222;2023-04-24T03:37:35;12.60;91.60
29345;DHT22;16339;48.748;2.222;2023-04-24T03:40:05;12.50;91.50
29345;DHT22;16339;48.748;2.222;2023-04-24T03:42:37;12.50;91.70
29345;DHT22;16339;48.748;2.222;2023-04-24T03:45:07;12.40;91.60
29345;DHT22;16339;48.748;2.222;2023-04-24T03:47:36;12.50;91.50
29345;DHT22;16339;48.748;2.222;2023-04-24T03:50:05;12.40;91.80
29345;DHT22;16339;48.748;2.222;2023-04-24T03:52:34;12.30;92.00
29345;DHT22;16339;48.748;2.222;2023-04-24T03:55:04;12.20;91.90
29345;DHT22;16339;48.748;2.222;2023-04-24T03:57:33;12.30;92.00
29345;DHT22;16339;48.748;2.222;2023-04-24T04:00:05;12.30;91.90
29345;DHT22;16339;48.748;2.222;2023-04-24T04:02:34;12.40;91.90
29345;DHT22;16339;48.748;2.222;2023-04-24T04:05:03;12.50;91.70
29345;DHT22;16339;48.748;2.222;2023-04-24T04:07:32;12.60;91.70
29345;DHT22;16339;48.748;2.222;2023-04-24T04:10:00;12.70;91.60
29345;DHT22;16339;48.748;2.222;2023-04-24T04:12:29;12.70;91.60
29345;DHT22;16339;48.748;2.222;2023-04-24T04:14:58;12.60;91.40
29345;DHT22;16339;48.748;2.222;2023-04-24T04:17:29;12.50;91.50
29345;DHT22;16339;48.748;2.222;2023-04-24T04:19:58;12.60;91.50
29345;DHT22;16339;48.748;2.222;2023-04-24T04:22:27;12.50;91.60
29345;DHT22;16339;48.748;2.222;2023-04-24T04:24:55;12.50;91.60
29345;DHT22;16339;48.748;2.222;2023-04-24T04:27:25;12.50;91.60
29345;DHT22;16339;48.748;2.222;2023-04-24T04:29:54;12.50;91.90
29345;DHT22;16339;48.748;2.222;2023-04-24T04:32:22;12.50;91.70
29345;DHT22;16339;48.748;2.222;2023-04-24T04:34:54;12.50;91.70
29345;DHT22;16339;48.748;2.222;2023-04-24T04:37:22;12.50;91.70
29345;DHT22;16339;48.748;2.222;2023-04-24T04:39:51;12.50;91.70
29345;DHT22;16339;48.748;2.222;2023-04-24T04:42:21;12.30;91.60
29345;DHT22;16339;48.748;2.222;2023-04-24T04:44:49;12.30;91.80
29345;DHT22;16339;48.748;2.222;2023-04-24T04:47:21;12.40;92.10
29345;DHT22;16339;48.748;2.222;2023-04-24T04:49:49;12.40;92.10
29345;DHT22;16339;48.748;2.222;2023-04-24T04:52:21;12.50;92.00
29345;DHT22;16339;48.748;2.222;2023-04-24T04:54:52;12.50;91.80
29345;DHT22;16339;48.748;2.222;2023-04-24T04:57:21;12.60;91.90
29345;DHT22;16339;48.748;2.222;2023-04-24T04:59:49;12.60;91.70
29345;DHT22;16339;48.748;2.222;2023-04-24T05:02:18;12.40;91.70
29345;DHT22;16339;48.748;2.222;2023-04-24T05:04:47;12.50;91.80
29345;DHT22;16339;48.748;2.222;2023-04-24T05:07:15;12.50;92.00
29345;DHT22;16339;48.748;2.222;2023-04-24T05:09:47;12.60;92.10
29345;DHT22;16339;48.748;2.222;2023-04-24T05:12:17;12.50;92.00
29345;DHT22;16339;48.748;2.222;2023-04-24T05:14:45;12.70;92.00
29345;DHT22;16339;48.748;2.222;2023-04-24T05:17:14;12.70;91.90
29345;DHT22;16339;48.748;2.222;2023-04-24T05:19:43;12.60;91.80
29345;DHT22;16339;48.748;2.222;2023-04-24T05:22:12;12.60;91.90
29345;DHT22;16339;48.748;2.222;2023-04-24T05:24:40;12.60;92.10
29345;DHT22;16339;48.748;2.222;2023-04-24T05:27:12;12.40;92.20
29345;DHT22;16339;48.748;2.222;2023-04-24T05:29:40;12.50;92.80
29345;DHT22;16339;48.748;2.222;2023-04-24T05:32:09;12.40;92.60
29345;DHT22;16339;48.748;2.222;2023-04-24T05:34:38;12.50;92.60
29345;DHT22;16339;48.748;2.222;2023-04-24T05:37:06;12.50;92.40
29345;DHT22;16339;48.748;2.222;2023-04-24T05:39:35;12.60;92.60
29345;DHT22;16339;48.748;2.222;2023-04-24T05:42:05;12.60;92.50
29345;DHT22;16339;48.748;2.222;2023-04-24T05:44:36;12.70;92.60
29345;DHT22;16339;48.748;2.222;2023-04-24T05:47:05;12.60;92.50
29345;DHT22;16339;48.748;2.222;2023-04-24T05:49:33;12.60;92.60
29345;DHT22;16339;48.748;2.222;2023-04-24T05:52:02;12.70;92.60
29345;DHT22;16339;48.748;2.222;2023-04-24T05:54:34;12.80;92.60
29345;DHT22;16339;48.748;2.222;2023-04-24T05:57:03;12.90;92.40
29345;DHT22;16339;48.748;2.222;2023-04-24T05:59:36;13.00;92.30
29345;DHT22;16339;48.748;2.222;2023-04-24T06:02:05;13.10;92.50
29345;DHT22;16339;48.748;2.222;2023-04-24T06:04:34;13.00;92.30
29345;DHT22;16339;48.748;2.222;2023-04-24T06:07:02;13.00;92.20
29345;DHT22;16339;48.748;2.222;2023-04-24T06:09:32;13.00;92.20
29345;DHT22;16339;48.748;2.222;2023-04-24T06:12:00;13.10;92.30
29345;DHT22;16339;48.748;2.222;2023-04-24T06:14:29;13.20;92.30
29345;DHT22;16339;48.748;2.222;2023-04-24T06:17:01;13.00;92.30
29345;DHT22;16339;48.748;2.222;2023-04-24T06:19:29;13.00;92.50
29345;DHT22;16339;48.748;2.222;2023-04-24T06:21:58;13.00;92.40
29345;DHT22;16339;48.748;2.222;2023-04-24T06:24:27;13.10;92.40
29345;DHT22;16339;48.748;2.222;2023-04-24T06:26:56;13.30;92.40
29345;DHT22;16339;48.748;2.222;2023-04-24T06:29:26;13.40;92.50
29345;DHT22;16339;48.748;2.222;2023-04-24T06:31:54;13.40;92.20
29345;DHT22;16339;48.748;2.222;2023-04-24T06:34:26;13.40;92.10
29345;DHT22;16339;48.748;2.222;2023-04-24T06:36:56;13.50;92.20
29345;DHT22;16339;48.748;2.222;2023-04-24T06:39:25;13.50;92.00
29345;DHT22;16339;48.748;2.222;2023-04-24T06:41:53;13.30;92.20
29345;DHT22;16339;48.748;2.222;2023-04-24T06:44:22;13.40;92.30
29345;DHT22;16339;48.748;2.222;2023-04-24T06:46:51;13.50;92.20
29345;DHT22;16339;48.748;2.222;2023-04-24T06:49:19;13.60;92.20
29345;DHT22;16339;48.748;2.222;2023-04-24T06:51:51;13.60;92.00
29345;DHT22;16339;48.748;2.222;2023-04-24T06:54:19;13.60;91.90
29345;DHT22;16339;48.748;2.222;2023-04-24T06:56:48;13.50;91.80
29345;DHT22;16339;48.748;2.222;2023-04-24T06:59:17;13.30;92.10
29345;DHT22;16339;48.748;2.222;2023-04-24T07:01:46;13.50;92.30
29345;DHT22;16339;48.748;2.222;2023-04-24T07:04:15;13.20;92.40
29345;DHT22;16339;48.748;2.222;2023-04-24T07:06:44;13.10;93.40
29345;DHT22;16339;48.748;2.222;2023-04-24T07:09:16;13.30;94.30
29345;DHT22;16339;48.748;2.222;2023-04-24T07:11:44;13.30;93.60
29345;DHT22;16339;48.748;2.222;2023-04-24T07:14:14;13.20;93.30
29345;DHT22;16339;48.748;2.222;2023-04-24T07:16:42;13.30;93.20
29345;DHT22;16339;48.748;2.222;2023-04-24T07:19:11;13.30;92.90
29345;DHT22;16339;48.748;2.222;2023-04-24T07:21:40;13.40;93.00
29345;DHT22;16339;48.748;2.222;2023-04-24T07:24:09;13.30;92.80
29345;DHT22;16339;48.748;2.222;2023-04-24T07:26:41;13.20;92.90
29345;DHT22;16339;48.748;2.222;2023-04-24T07:29:09;13.20;92.90
29345;DHT22;16339;48.748;2.222;2023-04-24T07:31:38;13.50;92.70
29345;DHT22;16339;48.748;2.222;2023-04-24T07:34:07;13.40;92.60
29345;DHT22;16339;48.748;2.222;2023-04-24T07:36:36;13.60;92.60
29345;DHT22;16339;48.748;2.222;2023-04-24T07:39:04;13.50;92.00
29345;DHT22;16339;48.748;2.222;2023-04-24T07:41:33;13.30;92.30
29345;DHT22;16339;48.748;2.222;2023-04-24T07:44:05;13.50;92.30
29345;DHT22;16339;48.748;2.222;2023-04-24T07:46:33;13.20;92.60
29345;DHT22;16339;48.748;2.222;2023-04-24T07:49:02;13.20;92.70
29345;DHT22;16339;48.748;2.222;2023-04-24T07:51:32;13.40;92.70
29345;DHT22;16339;48.748;2.222;2023-04-24T07:54:03;13.50;92.50
29345;DHT22;16339;48.748;2.222;2023-04-24T07:56:33;13.20;92.70
29345;DHT22;16339;48.748;2.222;2023-04-24T07:59:07;13.40;92.60
29345;DHT22;16339;48.748;2.222;2023-04-24T08:01:35;13.60;92.60
29345;DHT22;16339;48.748;2.222;2023-04-24T08:04:04;13.50;92.30
29345;DHT22;16339;48.748;2.222;2023-04-24T08:06:33;13.20;92.50
29345;DHT22;16339;48.748;2.222;2023-04-24T08:09:01;13.20;92.60
29345;DHT22;16339;48.748;2.222;2023-04-24T08:11:31;13.50;92.20
29345;DHT22;16339;48.748;2.222;2023-04-24T08:13:59;13.40;92.20
29345;DHT22;16339;48.748;2.222;2023-04-24T08:16:32;13.40;92.50
29345;DHT22;16339;48.748;2.222;2023-04-24T08:19:01;13.60;92.50
29345;DHT22;16339;48.748;2.222;2023-04-24T08:21:30;13.70;92.10
29345;DHT22;16339;48.748;2.222;2023-04-24T08:23:58;13.90;92.00
29345;DHT22;16339;48.748;2.222;2023-04-24T08:26:30;13.80;91.90
29345;DHT22;16339;48.748;2.222;2023-04-24T08:28:59;14.10;92.00
29345;DHT22;16339;48.748;2.222;2023-04-24T08:31:33;13.70;91.40
29345;DHT22;16339;48.748;2.222;2023-04-24T08:34:01;13.60;92.00
29345;DHT22;16339;48.748;2.222;2023-04-24T08:36:32;13.70;92.00
29345;DHT22;16339;48.748;2.222;2023-04-24T08:39:00;13.80;91.90
29345;DHT22;16339;48.748;2.222;2023-04-24T08:41:30;13.80;91.80
29345;DHT22;16339;48.748;2.222;2023-04-24T08:43:59;13.90;91.40
29345;DHT22;16339;48.748;2.222;2023-04-24T08:46:31;13.80;91.60
29345;DHT22;16339;48.748;2.222;2023-04-24T08:49:00;13.70;91.60
29345;DHT22;16339;48.748;2.222;2023-04-24T08:51:29;14.00;91.60
29345;DHT22;16339;48.748;2.222;2023-04-24T08:53:59;13.90;91.20
29345;DHT22;16339;48.748;2.222;2023-04-24T08:56:33;14.10;91.70
29345;DHT22;16339;48.748;2.222;2023-04-24T08:59:04;14.30;91.70
29345;DHT22;16339;48.748;2.222;2023-04-24T09:01:37;14.40;91.20
29345;DHT22;16339;48.748;2.222;2023-04-24T09:04:08;14.40;91.10
29345;DHT22;16339;48.748;2.222;2023-04-24T09:06:38;14.40;91.10
29345;DHT22;16339;48.748;2.222;2023-04-24T09:09:08;14.40;90.70
29345;DHT22;16339;48.748;2.222;2023-04-24T09:11:39;14.60;91.00
29345;DHT22;16339;48.748;2.222;2023-04-24T09:14:09;14.70;90.80
29345;DHT22;16339;48.748;2.222;2023-04-24T09:16:41;14.80;90.60
29345;DHT22;16339;48.748;2.222;2023-04-24T09:19:10;14.70;90.30
29345;DHT22;16339;48.748;2.222;2023-04-24T09:21:39;14.80;90.40
29345;DHT22;16339;48.748;2.222;2023-04-24T09:24:17;14.80;90.20
29345;DHT22;16339;48.748;2.222;2023-04-24T09:26:48;14.90;90.10
29345;DHT22;16339;48.748;2.222;2023-04-24T09:29:18;14.80;89.90
29345;DHT22;16339;48.748;2.222;2023-04-24T09:31:50;15.00;88.50
29345;DHT22;16339;48.748;2.222;2023-04-24T09:34:21;15.00;88.30
29345;DHT22;16339;48.748;2.222;2023-04-24T09:36:50;14.90;89.30
29345;DHT22;16339;48.748;2.222;2023-04-24T09:39:19;14.80;89.10
29345;DHT22;16339;48.748;2.222;2023-04-24T09:41:50;14.80;89.90
29345;DHT22;16339;48.748;2.222;2023-04-24T09:44:20;15.00;89.70
29345;DHT22;16339;48.748;2.222;2023-04-24T09:46:53;15.00;88.60
29345;DHT22;16339;48.748;2.222;2023-04-24T09:49:23;15.30;88.50
29345;DHT22;16339;48.748;2.222;2023-04-24T09:52:02;15.30;88.20
29345;DHT22;16339;48.748;2.222;2023-04-24T09:54:31;15.40;86.70
29345;DHT22;16339;48.748;2.222;2023-04-24T09:57:02;15.40;87.10
29345;DHT22;16339;48.748;2.222;2023-04-24T09:59:31;15.40;86.90
29345;DHT22;16339;48.748;2.222;2023-04-24T10:02:03;15.30;86.60
29345;DHT22;16339;48.748;2.222;2023-04-24T10:04:54;15.30;86.40
29345;DHT22;16339;48.748;2.222;2023-04-24T10:07:26;15.30;86.00
29345;DHT22;16339;48.748;2.222;2023-04-24T10:09:55;15.30;86.40
29345;DHT22;16339;48.748;2.222;2023-04-24T10:12:27;15.40;86.10
29345;DHT22;16339;48.748;2.222;2023-04-24T10:14:56;15.30;86.30
29345;DHT22;16339;48.748;2.222;2023-04-24T10:17:30;15.40;86.60
29345;DHT22;16339;48.748;2.222;2023-04-24T10:19:58;15.50;86.80
29345;DHT22;16339;48.748;2.222;2023-04-24T10:22:29;15.60;86.60
29345;DHT22;16339;48.748;2.222;2023-04-24T10:24:59;15.70;85.20
29345;DHT22;16339;48.748;2.222;2023-04-24T10:27:28;15.40;85.00
29345;DHT22;16339;48.748;2.222;2023-04-24T10:29:58;15.40;85.00
29345;DHT22;16339;48.748;2.222;2023-04-24T10:32:31;15.30;85.80
29345;DHT22;16339;48.748;2.222;2023-04-24T10:34:59;15.40;87.20
29345;DHT22;16339;48.748;2.222;2023-04-24T10:37:28;15.50;86.90
29345;DHT22;16339;48.748;2.222;2023-04-24T10:40:04;15.20;87.60
29345;DHT22;16339;48.748;2.222;2023-04-24T10:42:34;15.30;88.00
29345;DHT22;16339;48.748;2.222;2023-04-24T10:45:05;15.60;88.80
29345;DHT22;16339;48.748;2.222;2023-04-24T10:47:42;15.60;87.20
29345;DHT22;16339;48.748;2.222;2023-04-24T10:50:11;15.50;86.90
29345;DHT22;16339;48.748;2.222;2023-04-24T10:52:46;15.50;87.00
29345;DHT22;16339;48.748;2.222;2023-04-24T10:55:16;15.50;86.80
29345;DHT22;16339;48.748;2.222;2023-04-24T10:58:05;15.80;86.10
29345;DHT22;16339;48.748;2.222;2023-04-24T11:00:36;15.70;84.50
29345;DHT22;16339;48.748;2.222;2023-04-24T11:03:22;15.90;85.00
29345;DHT22;16339;48.748;2.222;2023-04-24T11:06:02;16.00;83.50
29345;DHT22;16339;48.748;2.222;2023-04-24T11:08:32;16.00;84.10
29345;DHT22;16339;48.748;2.222;2023-04-24T11:11:09;16.00;83.80
29345;DHT22;16339;48.748;2.222;2023-04-24T11:14:05;15.90;83.30
29345;DHT22;16339;48.748;2.222;2023-04-24T11:16:43;15.80;83.40
29345;DHT22;16339;48.748;2.222;2023-04-24T11:19:23;15.50;84.00
29345;DHT22;16339;48.748;2.222;2023-04-24T11:21:57;15.50;84.20
29345;DHT22;16339;48.748;2.222;2023-04-24T11:24:31;15.60;84.60
29345;DHT22;16339;48.748;2.222;2023-04-24T11:27:06;15.80;82.20
29345;DHT22;16339;48.748;2.222;2023-04-24T11:29:46;16.00;83.20
29345;DHT22;16339;48.748;2.222;2023-04-24T11:32:23;16.10;82.00
29345;DHT22;16339;48.748;2.222;2023-04-24T11:34:56;16.10;80.90
29345;DHT22;16339;48.748;2.222;2023-04-24T11:37:27;16.20;79.10
29345;DHT22;16339;48.748;2.222;2023-04-24T11:39:57;16.00;78.60
29345;DHT22;16339;48.748;2.222;2023-04-24T11:42:26;16.20;79.70
29345;DHT22;16339;48.748;2.222;2023-04-24T11:44:56;16.20;80.50
29345;DHT22;16339;48.748;2.222;2023-04-24T11:47:29;16.10;81.00
29345;DHT22;16339;48.748;2.222;2023-04-24T11:50:02;16.20;80.70
29345;DHT22;16339;48.748;2.222;2023-04-24T11:52:33;16.00;81.30
29345;DHT22;16339;48.748;2.222;2023-04-24T11:55:01;16.10;81.20
29345;DHT22;16339;48.748;2.222;2023-04-24T11:57:31;15.80;80.50
29345;DHT22;16339;48.748;2.222;2023-04-24T12:00:02;15.80;80.60
29345;DHT22;16339;48.748;2.222;2023-04-24T12:02:33;15.70;79.30
29345;DHT22;16339;48.748;2.222;2023-04-24T12:05:05;15.90;80.10
29345;DHT22;16339;48.748;2.222;2023-04-24T12:07:41;15.90;79.00
29345;DHT22;16339;48.748;2.222;2023-04-24T12:10:11;16.00;80.10
29345;DHT22;16339;48.748;2.222;2023-04-24T12:12:42;16.10;80.30
29345;DHT22;16339;48.748;2.222;2023-04-24T12:15:16;16.20;79.50
29345;DHT22;16339;48.748;2.222;2023-04-24T12:17:45;16.30;80.40
29345;DHT22;16339;48.748;2.222;2023-04-24T12:20:17;16.50;80.70
29345;DHT22;16339;48.748;2.222;2023-04-24T12:22:46;16.50;77.90
29345;DHT22;16339;48.748;2.222;2023-04-24T12:25:16;16.40;79.70
29345;DHT22;16339;48.748;2.222;2023-04-24T12:27:45;16.00;80.10
29345;DHT22;16339;48.748;2.222;2023-04-24T12:30:16;15.90;80.40
29345;DHT22;16339;48.748;2.222;2023-04-24T12:32:46;15.90;80.30
29345;DHT22;16339;48.748;2.222;2023-04-24T12:35:24;15.80;80.80
29345;DHT22;16339;48.748;2.222;2023-04-24T12:37:54;15.90;79.90
29345;DHT22;16339;48.748;2.222;2023-04-24T12:40:25;16.00;80.00
29345;DHT22;16339;48.748;2.222;2023-04-24T12:42:55;16.00;79.70
29345;DHT22;16339;48.748;2.222;2023-04-24T12:45:24;16.10;79.90
29345;DHT22;16339;48.748;2.222;2023-04-24T12:47:54;16.20;78.20
29345;DHT22;16339;48.748;2.222;2023-04-24T12:50:36;16.20;76.50
29345;DHT22;16339;48.748;2.222;2023-04-24T12:53:08;16.20;75.20
29345;DHT22;16339;48.748;2.222;2023-04-24T12:55:38;16.40;76.00
29345;DHT22;16339;48.748;2.222;2023-04-24T12:58:07;16.40;75.60
29345;DHT22;16339;48.748;2.222;2023-04-24T13:00:36;16.40;74.90
29345;DHT22;16339;48.748;2.222;2023-04-24T13:03:08;16.40;74.20
29345;DHT22;16339;48.748;2.222;2023-04-24T13:05:43;16.40;73.90
29345;DHT22;16339;48.748;2.222;2023-04-24T13:08:15;16.40;74.60
29345;DHT22;16339;48.748;2.222;2023-04-24T13:10:43;16.40;75.60
29345;DHT22;16339;48.748;2.222;2023-04-24T13:13:12;16.50;75.80
29345;DHT22;16339;48.748;2.222;2023-04-24T13:15:43;16.60;76.10
29345;DHT22;16339;48.748;2.222;2023-04-24T13:18:14;16.50;76.00
29345;DHT22;16339;48.748;2.222;2023-04-24T13:20:46;16.50;76.70
29345;DHT22;16339;48.748;2.222;2023-04-24T13:23:14;16.20;75.50
29345;DHT22;16339;48.748;2.222;2023-04-24T13:25:43;16.10;74.10
29345;DHT22;16339;48.748;2.222;2023-04-24T13:28:12;16.30;74.30
29345;DHT22;16339;48.748;2.222;2023-04-24T13:30:41;16.10;73.30
29345;DHT22;16339;48.748;2.222;2023-04-24T13:33:10;16.30;73.90
29345;DHT22;16339;48.748;2.222;2023-04-24T13:35:39;16.20;76.00
29345;DHT22;16339;48.748;2.222;2023-04-24T13:38:11;16.20;76.60
29345;DHT22;16339;48.748;2.222;2023-04-24T13:40:40;16.40;76.50
29345;DHT22;16339;48.748;2.222;2023-04-24T13:43:09;16.10;74.60
29345;DHT22;16339;48.748;2.222;2023-04-24T13:45:38;16.10;73.80
29345;DHT22;16339;48.748;2.222;2023-04-24T13:48:07;16.30;74.10
29345;DHT22;16339;48.748;2.222;2023-04-24T13:50:42;16.20;75.00
29345;DHT22;16339;48.748;2.222;2023-04-24T13:53:22;16.30;74.10
29345;DHT22;16339;48.748;2.222;2023-04-24T13:55:50;16.40;74.30
29345;DHT22;16339;48.748;2.222;2023-04-24T13:58:21;16.40;73.80
29345;DHT22;16339;48.748;2.222;2023-04-24T14:00:58;16.50;74.00
29345;DHT22;16339;48.748;2.222;2023-04-24T14:03:28;16.50;72.40
29345;DHT22;16339;48.748;2.222;2023-04-24T14:05:57;16.50;71.20
29345;DHT22;16339;48.748;2.222;2023-04-24T14:08:30;16.40;70.30
29345;DHT22;16339;48.748;2.222;2023-04-24T14:10:59;16.50;71.50
29345;DHT22;16339;48.748;2.222;2023-04-24T14:13:28;16.50;70.30
29345;DHT22;16339;48.748;2.222;2023-04-24T14:15:58;16.50;70.10
29345;DHT22;16339;48.748;2.222;2023-04-24T14:18:26;16.70;70.70
29345;DHT22;16339;48.748;2.222;2023-04-24T14:21:02;16.60;70.00
29345;DHT22;16339;48.748;2.222;2023-04-24T14:23:33;16.80;70.70
29345;DHT22;16339;48.748;2.222;2023-04-24T14:26:02;17.00;71.50
29345;DHT22;16339;48.748;2.222;2023-04-24T14:28:32;17.30;72.40
29345;DHT22;16339;48.748;2.222;2023-04-24T14:31:00;17.50;72.20
29345;DHT22;16339;48.748;2.222;2023-04-24T14:33:29;17.60;71.60
29345;DHT22;16339;48.748;2.222;2023-04-24T14:35:58;17.40;71.80
29345;DHT22;16339;48.748;2.222;2023-04-24T14:38:28;17.40;72.50
29345;DHT22;16339;48.748;2.222;2023-04-24T14:40:59;17.20;72.50
29345;DHT22;16339;48.748;2.222;2023-04-24T14:43:34;17.20;72.00
29345;DHT22;16339;48.748;2.222;2023-04-24T14:46:03;17.20;72.70
29345;DHT22;16339;48.748;2.222;2023-04-24T14:48:32;17.20;72.60
29345;DHT22;16339;48.748;2.222;2023-04-24T14:51:01;17.20;73.00
29345;DHT22;16339;48.748;2.222;2023-04-24T14:53:29;17.00;72.60
29345;DHT22;16339;48.748;2.222;2023-04-24T14:56:01;17.20;72.30
29345;DHT22;16339;48.748;2.222;2023-04-24T14:58:29;17.00;72.50
29345;DHT22;16339;48.748;2.222;2023-04-24T15:01:00;16.90;72.60
29345;DHT22;16339;48.748;2.222;2023-04-24T15:03:29;16.90;72.90
29345;DHT22;16339;48.748;2.222;2023-04-24T15:06:00;16.90;73.20
29345;DHT22;16339;48.748;2.222;2023-04-24T15:08:29;16.90;72.60
29345;DHT22;16339;48.748;2.222;2023-04-24T15:11:01;16.90;72.80
29345;DHT22;16339;48.748;2.222;2023-04-24T15:13:30;16.80;72.90
29345;DHT22;16339;48.748;2.222;2023-04-24T15:16:01;16.70;73.60
29345;DHT22;16339;48.748;2.222;2023-04-24T15:18:30;16.50;73.30
29345;DHT22;16339;48.748;2.222;2023-04-24T15:20:58;16.30;73.40
29345;DHT22;16339;48.748;2.222;2023-04-24T15:23:27;16.40;75.30
29345;DHT22;16339;48.748;2.222;2023-04-24T15:25:56;15.80;81.60
29345;DHT22;16339;48.748;2.222;2023-04-24T15:28:27;15.60;84.80
29345;DHT22;16339;48.748;2.222;2023-04-24T15:30:56;15.40;88.30
29345;DHT22;16339;48.748;2.222;2023-04-24T15:33:25;15.50;91.10
29345;DHT22;16339;48.748;2.222;2023-04-24T15:35:56;15.70;92.80
29345;DHT22;16339;48.748;2.222;2023-04-24T15:38:25;16.00;92.10
29345;DHT22;16339;48.748;2.222;2023-04-24T15:40:54;16.10;90.90
29345;DHT22;16339;48.748;2.222;2023-04-24T15:43:23;16.10;90.60
29345;DHT22;16339;48.748;2.222;2023-04-24T15:45:57;16.20;91.20
29345;DHT22;16339;48.748;2.222;2023-04-24T15:48:27;16.20;90.80